createdAt,value
2022-12-27T00:00:27.075Z,79.90
2022-12-27T00:02:53.755Z,86.70
2022-12-27T00:05:20.425Z,80.30
2022-12-27T00:07:47.013Z,73.10
2022-12-27T00:10:13.528Z,74.80
2022-12-27T00:12:40.069Z,65.80
2022-12-27T00:15:07.259Z,63.40
2022-12-27T00:17:33.768Z,64.40
2022-12-27T00:20:04.091Z,59.30
2022-12-27T00:22:35.026Z,56.40
2022-12-27T00:25:01.573Z,56.90
2022-12-27T00:27:28.023Z,60.70
2022-12-27T00:29:54.557Z,60.90
2022-12-27T00:32:21.095Z,56.90
2022-12-27T00:34:47.551Z,55.90
2022-12-27T00:37:14.077Z,52.90
2022-12-27T00:39:40.823Z,50.90
2022-12-27T00:42:07.340Z,51.10
2022-12-27T00:44:33.900Z,47.20
2022-12-27T00:47:00.306Z,42.80
2022-12-27T00:49:26.880Z,39.80
2022-12-27T00:51:53.419Z,57.40
2022-12-27T00:54:19.843Z,51.10
2022-12-27T00:56:46.336Z,51.70
2022-12-27T00:59:13.183Z,52.50
2022-12-27T01:01:40.739Z,31.90
2022-12-27T01:04:07.427Z,39.90
2022-12-27T01:06:35.548Z,35.10
2022-12-27T01:09:03.721Z,35.00
2022-12-27T01:11:31.062Z,39.40
2022-12-27T01:13:59.696Z,45.80
2022-12-27T01:16:28.087Z,42.70
2022-12-27T01:18:55.813Z,44.00
2022-12-27T01:21:24.657Z,41.40
2022-12-27T01:23:52.025Z,47.90
2022-12-27T01:26:21.581Z,41.70
2022-12-27T01:28:49.618Z,43.60
2022-12-27T01:31:18.856Z,46.50
2022-12-27T01:33:45.901Z,40.70
2022-12-27T01:36:16.083Z,35.30
2022-12-27T01:38:43.422Z,38.70
2022-12-27T01:41:24.465Z,39.70
2022-12-27T01:43:50.975Z,40.90
2022-12-27T01:46:18.221Z,36.00
2022-12-27T01:48:45.528Z,41.80
2022-12-27T01:51:12.354Z,35.00
2022-12-27T01:53:43.856Z,24.30
2022-12-27T01:56:29.422Z,21.10
2022-12-27T01:59:02.003Z,18.80
2022-12-27T02:01:34.334Z,13.80
2022-12-27T02:04:16.557Z,14.90
2022-12-27T02:06:43.739Z,13.30
2022-12-27T02:09:29.224Z,10.30
2022-12-27T02:11:57.472Z,10.10
2022-12-27T02:14:38.871Z,9.60
2022-12-27T02:19:40.508Z,7.00
2022-12-27T02:22:30.675Z,7.30
2022-12-27T02:24:57.108Z,7.60
2022-12-27T02:27:41.363Z,6.30
2022-12-27T02:30:09.551Z,6.90
2022-12-27T02:32:44.277Z,6.70
2022-12-27T02:35:33.961Z,5.60
2022-12-27T02:38:06.958Z,5.20
2022-12-27T02:40:35.857Z,5.00
2022-12-27T02:43:03.089Z,5.20
2022-12-27T02:45:33.585Z,4.90
2022-12-27T02:48:00.268Z,4.90
2022-12-27T02:50:44.749Z,5.20
2022-12-27T02:53:23.102Z,4.90
2022-12-27T02:56:07.841Z,4.30
2022-12-27T02:59:02.424Z,4.80
2022-12-27T03:01:34.796Z,4.30
2022-12-27T03:04:23.163Z,4.40
2022-12-27T03:06:56.415Z,4.20
2022-12-27T03:09:30.237Z,4.20
2022-12-27T03:11:57.009Z,3.90
2022-12-27T03:14:35.597Z,4.80
2022-12-27T03:17:11.691Z,4.50
2022-12-27T03:19:50.732Z,6.70
2022-12-27T03:22:20.870Z,5.40
2022-12-27T03:24:47.560Z,4.40
2022-12-27T03:27:23.182Z,5.20
2022-12-27T03:29:53.235Z,7.30
2022-12-27T03:32:21.620Z,9.50
2022-12-27T03:34:55.660Z,13.50
2022-12-27T03:37:36.067Z,9.80
2022-12-27T03:40:27.620Z,7.50
2022-12-27T03:45:47.880Z,4.60
2022-12-27T03:48:20.848Z,3.50
2022-12-27T03:50:53.647Z,4.20
2022-12-27T03:53:29.801Z,2.90
2022-12-27T03:55:56.914Z,3.30
2022-12-27T03:58:23.715Z,4.00
2022-12-27T04:00:50.116Z,3.00
2022-12-27T04:03:18.263Z,4.40
2022-12-27T04:05:44.769Z,3.10
2022-12-27T04:08:11.309Z,3.60
2022-12-27T04:10:37.966Z,3.00
2022-12-27T04:13:04.353Z,3.00
2022-12-27T04:15:31.199Z,3.60
2022-12-27T04:17:57.685Z,3.70
2022-12-27T04:20:24.814Z,5.70
2022-12-27T04:22:51.306Z,4.30
2022-12-27T04:25:17.772Z,4.60
2022-12-27T04:27:44.212Z,4.30
2022-12-27T04:30:11.711Z,3.70
2022-12-27T04:32:38.351Z,4.00
2022-12-27T04:35:05.503Z,5.40
2022-12-27T04:37:32.149Z,6.40
2022-12-27T04:39:58.843Z,4.80
2022-12-27T04:42:25.335Z,4.60
2022-12-27T04:44:51.888Z,5.40
2022-12-27T04:47:22.095Z,5.00
2022-12-27T04:49:48.782Z,5.20
2022-12-27T04:52:18.010Z,2.20
2022-12-27T04:54:44.588Z,2.00
2022-12-27T04:57:11.109Z,1.80
2022-12-27T04:59:37.647Z,3.10
2022-12-27T05:02:04.378Z,2.30
2022-12-27T05:04:35.227Z,2.30
2022-12-27T05:07:02.253Z,2.50
2022-12-27T05:09:28.813Z,4.20
2022-12-27T05:11:55.450Z,2.60
2022-12-27T05:14:21.905Z,2.50
2022-12-27T05:16:48.376Z,2.30
2022-12-27T05:19:15.041Z,2.30
2022-12-27T05:21:44.452Z,3.10
2022-12-27T05:24:10.919Z,2.60
2022-12-27T05:26:38.044Z,2.90
2022-12-27T05:29:06.653Z,2.90
2022-12-27T05:31:33.684Z,3.10
2022-12-27T05:34:00.290Z,5.10
2022-12-27T05:36:27.417Z,18.40
2022-12-27T05:38:53.951Z,19.30
2022-12-27T05:41:20.491Z,12.70
2022-12-27T05:43:47.014Z,4.40
2022-12-27T05:46:18.883Z,4.20
2022-12-27T05:48:46.861Z,4.50
2022-12-27T05:51:16.448Z,4.50
2022-12-27T05:53:43.721Z,4.60
2022-12-27T05:56:15.258Z,5.10
2022-12-27T05:58:42.650Z,5.70
2022-12-27T06:01:11.583Z,4.70
2022-12-27T06:03:38.818Z,4.70
2022-12-27T06:06:07.937Z,5.60
2022-12-27T06:08:35.605Z,4.10
2022-12-27T06:11:14.415Z,3.50
2022-12-27T06:13:42.569Z,4.70
2022-12-27T06:16:11.682Z,9.40
2022-12-27T06:18:40.263Z,13.90
2022-12-27T06:21:12.549Z,15.00
2022-12-27T06:23:41.822Z,16.30
2022-12-27T06:26:12.675Z,9.60
2022-12-27T06:28:39.219Z,4.40
2022-12-27T06:31:05.850Z,3.00
2022-12-27T06:33:33.171Z,2.80
2022-12-27T06:35:59.602Z,3.00
2022-12-27T06:38:26.095Z,2.30
2022-12-27T06:40:52.584Z,4.90
2022-12-27T06:43:19.068Z,3.90
2022-12-27T06:45:45.517Z,4.10
2022-12-27T06:48:12.262Z,2.60
2022-12-27T06:50:38.667Z,4.10
2022-12-27T06:53:05.073Z,2.40
2022-12-27T06:55:31.575Z,1.70
2022-12-27T06:57:58.012Z,4.00
2022-12-27T07:00:24.444Z,7.00
2022-12-27T07:02:51.139Z,7.50
2022-12-27T07:05:17.729Z,5.80
2022-12-27T07:07:44.273Z,6.90
2022-12-27T07:10:10.812Z,5.80
2022-12-27T07:12:37.356Z,5.60
2022-12-27T07:15:06.324Z,5.30
2022-12-27T07:17:34.959Z,6.40
2022-12-27T07:20:02.299Z,6.00
2022-12-27T07:22:28.695Z,5.90
2022-12-27T07:24:55.280Z,3.40
2022-12-27T07:27:21.669Z,5.70
2022-12-27T07:29:48.345Z,6.30
2022-12-27T07:32:15.102Z,9.80
2022-12-27T07:34:41.844Z,8.80
2022-12-27T07:37:08.573Z,7.00
2022-12-27T07:39:35.375Z,7.70
2022-12-27T07:42:07.789Z,7.60
2022-12-27T07:44:34.864Z,4.90
2022-12-27T07:47:01.287Z,4.50
2022-12-27T07:49:27.946Z,4.90
2022-12-27T07:51:54.384Z,5.40
2022-12-27T07:54:21.075Z,4.10
2022-12-27T07:56:47.569Z,4.50
2022-12-27T07:59:14.219Z,3.90
2022-12-27T08:01:40.797Z,5.20
2022-12-27T08:04:07.363Z,4.30
2022-12-27T08:06:35.107Z,4.80
2022-12-27T08:09:06.465Z,5.10
2022-12-27T08:11:32.954Z,14.70
2022-12-27T08:13:59.368Z,6.80
2022-12-27T08:16:26.838Z,7.90
2022-12-27T08:18:53.550Z,9.50
2022-12-27T08:21:20.101Z,10.00
2022-12-27T08:23:46.764Z,8.40
2022-12-27T08:26:13.290Z,6.30
2022-12-27T08:28:40.081Z,11.40
2022-12-27T08:31:08.964Z,7.70
2022-12-27T08:33:37.192Z,8.40
2022-12-27T08:36:22.323Z,13.00
2022-12-27T08:38:54.161Z,7.30
2022-12-27T08:41:21.440Z,7.40
2022-12-27T08:43:47.889Z,10.50
2022-12-27T08:46:14.400Z,11.30
2022-12-27T08:48:40.984Z,8.30
2022-12-27T08:51:12.599Z,5.00
2022-12-27T08:53:41.192Z,9.50
2022-12-27T08:56:07.931Z,9.40
2022-12-27T08:58:34.411Z,11.30
2022-12-27T09:01:08.279Z,12.80
2022-12-27T09:03:35.327Z,10.00
2022-12-27T09:06:13.280Z,10.70
2022-12-27T09:08:41.724Z,7.40
2022-12-27T09:11:11.054Z,9.90
2022-12-27T09:13:37.896Z,8.40
2022-12-27T09:16:10.256Z,9.70
2022-12-27T09:18:38.460Z,10.10
2022-12-27T09:21:11.057Z,13.00
2022-12-27T09:23:38.250Z,15.60
2022-12-27T09:26:06.007Z,16.30
2022-12-27T09:28:32.609Z,15.40
2022-12-27T09:30:59.195Z,8.70
2022-12-27T09:33:25.722Z,10.50
2022-12-27T09:35:52.629Z,8.20
2022-12-27T09:38:19.277Z,7.70
2022-12-27T09:40:55.323Z,5.50
2022-12-27T09:43:39.501Z,8.30
2022-12-27T09:46:13.138Z,7.70
2022-12-27T09:48:40.659Z,5.70
2022-12-27T09:51:18.053Z,6.80
2022-12-27T09:54:09.694Z,8.70
2022-12-27T09:59:28.980Z,7.30
2022-12-27T10:01:55.583Z,4.60
2022-12-27T10:04:22.320Z,9.90
2022-12-27T10:06:48.919Z,8.40
2022-12-27T10:09:21.076Z,8.40
2022-12-27T10:11:58.574Z,12.00
2022-12-27T10:14:28.084Z,9.50
2022-12-27T10:17:02.916Z,10.60
2022-12-27T10:19:38.792Z,8.30
2022-12-27T10:22:24.641Z,7.30
2022-12-27T10:24:56.466Z,12.70
2022-12-27T10:27:26.246Z,9.50
2022-12-27T10:29:55.482Z,11.40
2022-12-27T10:32:22.544Z,8.10
2022-12-27T10:34:55.762Z,18.30
2022-12-27T10:37:22.839Z,12.80
2022-12-27T10:39:49.252Z,11.60
2022-12-27T10:42:35.504Z,11.40
2022-12-27T10:45:31.399Z,7.90
2022-12-27T10:48:15.238Z,11.70
2022-12-27T10:50:48.665Z,9.50
2022-12-27T10:53:30.310Z,8.20
2022-12-27T10:56:10.045Z,6.90
2022-12-27T10:59:19.656Z,5.30
2022-12-27T11:01:48.668Z,7.90
2022-12-27T11:04:21.062Z,9.30
2022-12-27T11:07:12.352Z,9.60
2022-12-27T11:09:43.490Z,10.50
2022-12-27T11:12:24.071Z,7.10
2022-12-27T11:15:00.212Z,8.40
2022-12-27T11:17:35.681Z,7.40
2022-12-27T11:20:19.601Z,7.60
2022-12-27T11:22:54.337Z,7.20
2022-12-27T11:25:21.681Z,8.30
2022-12-27T11:27:51.928Z,8.40
2022-12-27T11:30:34.992Z,7.70
2022-12-27T11:33:39.221Z,7.00
2022-12-27T11:36:09.059Z,9.40
2022-12-27T11:38:38.403Z,10.90
2022-12-27T11:41:20.874Z,11.00
2022-12-27T11:44:00.213Z,8.90
2022-12-27T11:47:04.776Z,10.70
2022-12-27T11:49:37.079Z,11.60
2022-12-27T11:52:22.154Z,19.50
2022-12-27T11:55:17.350Z,15.60
2022-12-27T11:58:25.302Z,13.50
2022-12-27T12:01:14.382Z,10.40
2022-12-27T12:04:17.950Z,9.30
2022-12-27T12:07:21.854Z,12.70
2022-12-27T12:10:06.436Z,12.40
2022-12-27T12:13:03.785Z,8.00
2022-12-27T12:15:36.699Z,12.80
2022-12-27T12:18:18.051Z,14.90
2022-12-27T12:21:09.301Z,13.60
2022-12-27T12:23:54.049Z,21.60
2022-12-27T12:26:23.293Z,10.50
2022-12-27T12:29:15.417Z,14.20
2022-12-27T12:32:05.223Z,9.50
2022-12-27T12:34:50.678Z,9.70
2022-12-27T12:37:45.261Z,8.60
2022-12-27T12:40:38.544Z,10.10
2022-12-27T12:43:26.999Z,6.60
2022-12-27T12:46:30.915Z,10.10
2022-12-27T12:49:15.390Z,11.30
2022-12-27T12:52:25.301Z,10.70
2022-12-27T12:54:57.545Z,8.10
2022-12-27T12:57:42.906Z,8.70
2022-12-27T13:00:24.479Z,8.30
2022-12-27T13:05:45.168Z,8.00
2022-12-27T13:08:32.735Z,6.50
2022-12-27T13:11:27.105Z,6.80
2022-12-27T13:14:12.105Z,7.40
2022-12-27T13:16:59.487Z,8.20
2022-12-27T13:19:50.229Z,8.10
2022-12-27T13:22:23.365Z,6.70
2022-12-27T13:25:17.053Z,7.20
2022-12-27T13:28:28.820Z,8.00
2022-12-27T13:31:22.420Z,10.80
2022-12-27T13:34:10.559Z,10.70
2022-12-27T13:37:11.413Z,10.10
2022-12-27T13:39:43.816Z,9.30
2022-12-27T13:42:43.061Z,8.30
2022-12-27T13:45:23.299Z,12.10
2022-12-27T13:47:55.908Z,11.10
2022-12-27T13:50:34.584Z,9.40
2022-12-27T13:53:22.076Z,9.50
2022-12-27T13:56:27.254Z,11.00
2022-12-27T13:59:13.840Z,12.80
2022-12-27T14:02:06.380Z,13.80
2022-12-27T14:05:09.474Z,9.10
2022-12-27T14:07:46.878Z,10.00
2022-12-27T14:10:19.519Z,8.30
2022-12-27T14:13:03.668Z,13.10
2022-12-27T14:15:49.839Z,8.90
2022-12-27T14:18:42.568Z,8.30
2022-12-27T14:21:44.552Z,13.30
2022-12-27T14:24:37.054Z,15.40
2022-12-27T14:27:09.330Z,15.30
2022-12-27T14:29:57.613Z,13.40
2022-12-27T14:32:49.156Z,21.80
2022-12-27T14:35:30.641Z,15.90
2022-12-27T14:41:07.978Z,16.00
2022-12-27T14:43:49.657Z,17.90
2022-12-27T14:49:33.842Z,20.40
2022-12-27T14:52:31.251Z,20.30
2022-12-27T14:55:25.306Z,16.30
2022-12-27T14:58:02.577Z,18.70
2022-12-27T15:00:59.708Z,19.80
2022-12-27T15:04:03.804Z,23.60
2022-12-27T15:06:47.498Z,16.70
2022-12-27T15:09:16.662Z,16.40
2022-12-27T15:11:51.942Z,21.50
2022-12-27T15:14:28.319Z,20.60
2022-12-27T15:17:12.982Z,25.50
2022-12-27T15:20:14.457Z,27.20
2022-12-27T15:22:57.513Z,24.20
2022-12-27T15:25:30.344Z,24.10
2022-12-27T15:28:32.842Z,23.30
2022-12-27T15:31:26.860Z,31.20
2022-12-27T15:34:30.544Z,36.60
2022-12-27T15:36:57.499Z,35.10
2022-12-27T15:39:32.997Z,30.90
2022-12-27T15:42:02.226Z,40.00
2022-12-27T15:45:04.227Z,37.00
2022-12-27T15:47:46.202Z,33.20
2022-12-27T15:50:15.529Z,33.80
2022-12-27T15:52:54.360Z,28.30
2022-12-27T15:55:54.795Z,31.50
2022-12-27T15:58:25.326Z,24.90
2022-12-27T16:01:22.172Z,24.40
2022-12-27T16:03:53.223Z,22.30
2022-12-27T16:06:35.001Z,19.60
2022-12-27T16:09:23.301Z,29.00
2022-12-27T16:12:02.629Z,23.80
2022-12-27T16:14:32.053Z,29.30
2022-12-27T16:17:07.158Z,23.50
2022-12-27T16:19:46.433Z,25.10
2022-12-27T16:22:26.840Z,21.40
2022-12-27T16:24:53.818Z,25.50
2022-12-27T16:27:29.984Z,24.70
2022-12-27T16:29:58.243Z,34.80
2022-12-27T16:32:27.493Z,26.30
2022-12-27T16:35:09.983Z,31.50
2022-12-27T16:37:45.748Z,30.80
2022-12-27T16:40:30.685Z,30.60
2022-12-27T16:42:57.149Z,36.20
2022-12-27T16:45:43.652Z,30.20
2022-12-27T16:48:40.727Z,32.30
2022-12-27T16:51:17.392Z,33.60
2022-12-27T16:54:00.526Z,28.70
2022-12-27T16:56:29.941Z,32.10
2022-12-27T16:58:57.438Z,26.30
2022-12-27T17:01:36.248Z,24.90
2022-12-27T17:04:03.763Z,27.00
2022-12-27T17:06:33.268Z,28.00
2022-12-27T17:09:09.778Z,21.30
2022-12-27T17:11:56.523Z,21.90
2022-12-27T17:14:31.609Z,31.00
2022-12-27T17:17:25.093Z,27.70
2022-12-27T17:20:02.218Z,28.10
2022-12-27T17:22:34.980Z,24.80
2022-12-27T17:25:15.084Z,25.00
2022-12-27T17:27:56.088Z,22.90
2022-12-27T17:30:26.220Z,17.90
2022-12-27T17:33:09.426Z,21.20
2022-12-27T17:35:54.213Z,23.30
2022-12-27T17:38:38.877Z,19.80
2022-12-27T17:41:47.093Z,22.70
2022-12-27T17:44:37.936Z,26.00
2022-12-27T17:47:16.067Z,16.40
2022-12-27T17:49:43.098Z,24.10
2022-12-27T17:52:16.999Z,23.00
2022-12-27T17:54:43.528Z,25.40
2022-12-27T17:57:15.308Z,25.30
2022-12-27T17:59:47.092Z,29.50
2022-12-27T18:02:24.816Z,23.50
2022-12-27T18:04:54.643Z,29.60
2022-12-27T18:07:27.545Z,33.10
2022-12-27T18:10:26.639Z,30.70
2022-12-27T18:12:55.958Z,33.80
2022-12-27T18:15:24.957Z,32.00
2022-12-27T18:17:58.287Z,34.90
2022-12-27T18:20:27.461Z,33.10
2022-12-27T18:23:02.854Z,26.40
2022-12-27T18:25:34.016Z,26.50
2022-12-27T18:28:03.573Z,23.00
2022-12-27T18:30:37.477Z,18.50
2022-12-27T18:33:04.843Z,23.30
2022-12-27T18:35:31.594Z,20.30
2022-12-27T18:37:58.010Z,21.20
2022-12-27T18:40:25.689Z,18.00
2022-12-27T18:42:53.765Z,21.80
2022-12-27T18:45:27.870Z,22.50
2022-12-27T18:47:57.175Z,23.10
2022-12-27T18:50:30.196Z,28.90
2022-12-27T18:53:02.664Z,33.60
2022-12-27T18:55:29.472Z,28.20
2022-12-27T18:58:06.530Z,31.30
2022-12-27T19:00:48.116Z,34.50
2022-12-27T19:06:13.186Z,36.40
2022-12-27T19:08:51.440Z,39.70
2022-12-27T19:11:24.809Z,27.10
2022-12-27T19:13:58.244Z,31.90
2022-12-27T19:16:31.308Z,25.60
2022-12-27T19:19:26.411Z,17.20
2022-12-27T19:21:53.603Z,19.60
2022-12-27T19:24:32.740Z,15.80
2022-12-27T19:27:16.275Z,13.60
2022-12-27T19:29:50.900Z,13.50
2022-12-27T19:32:24.098Z,13.50
2022-12-27T19:34:53.712Z,16.40
2022-12-27T19:37:20.747Z,20.00
2022-12-27T19:39:48.366Z,14.00
2022-12-27T19:42:18.474Z,16.20
2022-12-27T19:44:44.991Z,15.40
2022-12-27T19:47:14.704Z,18.80
2022-12-27T19:49:43.377Z,16.00
2022-12-27T19:52:26.444Z,14.90
2022-12-27T19:55:00.762Z,14.50
2022-12-27T19:57:27.285Z,16.00
2022-12-27T19:59:53.749Z,20.20
2022-12-27T20:02:20.465Z,15.70
2022-12-27T20:04:47.482Z,16.50
2022-12-27T20:07:21.466Z,19.00
2022-12-27T20:09:48.092Z,24.80
2022-12-27T20:12:16.202Z,22.60
2022-12-27T20:14:42.938Z,23.90
2022-12-27T20:17:09.431Z,21.80
2022-12-27T20:19:35.816Z,21.00
2022-12-27T20:22:02.254Z,23.50
2022-12-27T20:24:28.980Z,24.40
2022-12-27T20:26:55.414Z,24.10
2022-12-27T20:29:21.897Z,25.60
2022-12-27T20:31:48.812Z,24.30
2022-12-27T20:34:15.746Z,25.90
2022-12-27T20:36:42.726Z,21.80
2022-12-27T20:39:09.224Z,24.90
2022-12-27T20:41:36.063Z,26.10
2022-12-27T20:44:03.259Z,29.30
2022-12-27T20:46:29.724Z,28.70
2022-12-27T20:48:56.815Z,25.00
2022-12-27T20:51:28.377Z,26.30
2022-12-27T20:53:56.786Z,28.20
2022-12-27T20:56:23.443Z,24.50
2022-12-27T20:58:49.971Z,25.40
2022-12-27T21:01:19.696Z,23.70
2022-12-27T21:03:46.998Z,20.30
2022-12-27T21:06:16.957Z,20.30
2022-12-27T21:08:49.173Z,21.30
2022-12-27T21:11:23.437Z,19.00
2022-12-27T21:13:50.772Z,18.20
2022-12-27T21:16:23.396Z,19.90
2022-12-27T21:18:50.299Z,18.60
2022-12-27T21:21:20.741Z,17.80
2022-12-27T21:23:49.988Z,17.40
2022-12-27T21:26:23.052Z,19.40
2022-12-27T21:28:49.973Z,19.60
2022-12-27T21:31:19.459Z,16.80
2022-12-27T21:33:47.575Z,16.60
2022-12-27T21:36:20.337Z,14.60
2022-12-27T21:38:47.793Z,18.00
2022-12-27T21:41:15.890Z,16.10
2022-12-27T21:43:43.680Z,21.30
2022-12-27T21:46:16.223Z,20.10
2022-12-27T21:48:43.343Z,21.10
2022-12-27T21:51:18.642Z,23.10
2022-12-27T21:53:45.712Z,22.20
2022-12-27T21:56:14.057Z,18.10
2022-12-27T21:58:42.273Z,20.80
2022-12-27T22:01:16.350Z,23.60
2022-12-27T22:03:45.400Z,24.80
2022-12-27T22:06:13.542Z,28.70
2022-12-27T22:08:41.337Z,23.00
2022-12-27T22:11:07.799Z,23.70
2022-12-27T22:13:34.503Z,18.20
2022-12-27T22:16:03.962Z,15.90
2022-12-27T22:18:32.495Z,16.70
2022-12-27T22:21:05.201Z,21.50
2022-12-27T22:23:36.963Z,19.60
2022-12-27T22:26:04.523Z,21.80
2022-12-27T22:28:31.471Z,18.00
2022-12-27T22:30:58.023Z,19.20
2022-12-27T22:33:24.450Z,18.20
2022-12-27T22:35:50.865Z,20.50
2022-12-27T22:38:17.317Z,18.80
2022-12-27T22:40:46.544Z,17.80
2022-12-27T22:43:13.886Z,21.00
2022-12-27T22:45:41.548Z,23.50
2022-12-27T22:48:07.991Z,23.10
2022-12-27T22:50:34.528Z,19.00
2022-12-27T22:53:00.963Z,23.30
2022-12-27T22:55:27.507Z,38.90
2022-12-27T22:57:53.899Z,45.90
2022-12-27T23:00:20.490Z,35.90
2022-12-27T23:02:47.058Z,40.60
2022-12-27T23:05:13.673Z,29.80
2022-12-27T23:08:04.062Z,26.80
2022-12-27T23:10:26.518Z,29.20
2022-12-27T23:12:52.974Z,20.30
2022-12-27T23:15:19.591Z,19.00
2022-12-27T23:17:46.002Z,21.60
2022-12-27T23:20:12.662Z,22.90
2022-12-27T23:22:39.071Z,26.60
2022-12-27T23:25:05.751Z,24.70
2022-12-27T23:27:32.207Z,30.10
2022-12-27T23:29:58.603Z,34.70
2022-12-27T23:32:25.161Z,36.80
2022-12-27T23:34:51.581Z,38.40
2022-12-27T23:37:18.247Z,40.50
2022-12-27T23:39:44.778Z,36.10
2022-12-27T23:42:11.193Z,39.20
2022-12-27T23:44:37.649Z,31.00
2022-12-27T23:47:05.619Z,36.50
2022-12-27T23:49:32.778Z,35.70
2022-12-27T23:51:59.222Z,40.60
2022-12-27T23:54:25.694Z,40.50
2022-12-27T23:56:52.246Z,28.50
2022-12-27T23:59:18.954Z,37.80
